windsock image

Welcome to Bigfield Strip.

anemometer image
     

 Help for dials.  
 
Local Met:

Wind:   
10 Min average:  
340 ° / 16.1 kts (10.4)
334° / 15.9

Temperature:  
5.7°C C
Dew Point:  
-1.3°C C
QNH:  
Trend:  
1006.2 mb mb
+1.3mb/hr
BigField Strip. This image updates approximately every minute, it can have a two minute delay.  
 

Humidity:  
61 %
Sunrise:   06:48z
Sunset:   17:44z
Updated:  
  UTC
 
   More met info, trends, radar, history etc. available here   

LUTON Metar   EGGW 021050Z 26027KT 9999 FEW033 SCT040 05/M01 Q1005
 
  TAF   2015/03/02 06:15 TAF EGGW 020457Z 0206/0306 26014KT 9999 SCT030 BECMG 0207/0210 27020G30KT PROB30 TEMPO 0207/0209 2000 SHRASN BKN005 BECMG 0215/0218 23012KT PROB30 TEMPO 0302/0305 25015G25KT 2000 SHRASN BKN005
 
BENSON Metar   EGUB 021050Z 26020KT 9999 FEW040 06/M04 Q1007 BLU NOSIG
 
  TAF   2015/03/02 09:03 TAF EGUB 020742Z 0209/0218 24013KT 9999 FEW030 TEMPO 0209/0218 25015G25KT
 
Big Field view 1 icon   Big Field view 2 icon   Big Field view 3 icon   Chart AL3a in PDF icon   Chart AL3a in Word icon

WARNING:
This information is provided by the Airstrip unofficial weather station, DO NOT depend on the data provided here for any purpose.
This page is updated for latest Metars & TAF's every 5 minutes. Refresh the browser to check for the lastest.
Page designed for a minimum browser size of 1024x768.
© Copyright 2015 BigField Strip. This page auto generated 11:06 UTC - 02/03/2015   Contact Us
Valid HTML 4.01 Transitional     Windows uptime: 0 Days 8 Hours 34 Minutes 32 Seconds    WD started: 02:38 02/03/15    Free memory: 1542MB     Valid CSS!